Time;durP1;ratioP1;P1;durP2;ratioP2;P2;SDS_P1;SDS_P2;PMS_P1;PMS_P2;Temp;Humidity;BMP_temperature;BMP_pressure;BME280_temperature;BME280_humidity;BME280_pressure;Samples;Min_cycle;Max_cycle;Signal;HPM_P1;HPM_P2
2021/01/30 00:00:31;;;;;;;13.03;3.83;;;9.70;99.90;;;;;;5119888;27;20210;-87
2021/01/30 00:02:57;;;;;;;20.87;4.87;;;9.80;99.90;;;;;;5119197;27;20174;-89
2021/01/30 00:05:24;;;;;;;11.87;4.07;;;9.80;99.90;;;;;;5119859;27;20174;-89
2021/01/30 00:07:50;;;;;;;12.50;4.00;;;9.90;99.90;;;;;;5118753;27;20181;-87
2021/01/30 00:10:17;;;;;;;14.67;4.10;;;9.80;99.90;;;;;;5119713;27;20190;-90
2021/01/30 00:12:43;;;;;;;14.13;4.07;;;9.80;99.90;;;;;;5119794;27;20285;-89
2021/01/30 00:15:15;;;;;;;15.10;5.10;;;9.70;99.90;;;;;;5119680;27;20261;-87
2021/01/30 00:17:41;;;;;;;22.23;5.47;;;9.70;99.90;;;;;;5119674;27;20180;-88
2021/01/30 00:20:07;;;;;;;17.50;5.13;;;9.80;99.90;;;;;;5119483;27;20217;-86
2021/01/30 00:22:33;;;;;;;13.73;4.00;;;9.90;99.90;;;;;;5119101;27;20521;-86
2021/01/30 00:24:59;;;;;;;18.27;5.23;;;9.80;99.90;;;;;;5119245;27;20182;-87
2021/01/30 00:27:25;;;;;;;23.80;4.77;;;9.80;99.90;;;;;;5119266;27;20610;-89
2021/01/30 00:29:51;;;;;;;17.83;4.63;;;9.70;99.90;;;;;;5101315;28;20215;-87
2021/01/30 00:32:19;;;;;;;14.80;4.27;;;9.70;99.90;;;;;;5093610;28;20208;-88
2021/01/30 00:34:45;;;;;;;18.10;4.63;;;9.60;99.90;;;;;;5098838;28;20266;-87
2021/01/30 00:37:22;;;;;;;15.23;3.87;;;9.90;99.90;;;;;;5098885;28;20623;-87
2021/01/30 00:39:50;;;;;;;15.20;4.23;;;9.60;99.90;;;;;;5098749;28;20217;-89
2021/01/30 00:42:19;;;;;;;19.23;6.37;;;9.60;99.90;;;;;;5098875;28;20167;-89
2021/01/30 00:44:45;;;;;;;11.50;3.70;;;9.60;99.90;;;;;;5098550;28;20251;-88
2021/01/30 00:47:11;;;;;;;18.30;4.40;;;9.70;99.90;;;;;;5098519;28;20208;-87
2021/01/30 00:49:42;;;;;;;17.40;5.50;;;9.70;99.90;;;;;;5098760;28;20198;-88
2021/01/30 00:52:08;;;;;;;17.93;5.50;;;9.60;99.90;;;;;;5097617;28;20170;-88
2021/01/30 00:54:34;;;;;;;16.50;4.67;;;9.60;99.90;;;;;;5098448;28;20662;-87
2021/01/30 00:57:00;;;;;;;17.80;5.27;;;9.70;99.90;;;;;;5098124;28;20175;-88
2021/01/30 00:59:26;;;;;;;16.60;4.33;;;9.70;99.90;;;;;;5098293;28;20214;-88
2021/01/30 01:01:52;;;;;;;15.47;4.57;;;9.70;99.90;;;;;;5098380;28;20167;-87
2021/01/30 01:04:21;;;;;;;18.80;4.57;;;9.70;99.90;;;;;;5098112;28;20170;-88
2021/01/30 01:06:48;;;;;;;16.40;5.23;;;9.70;99.90;;;;;;5097677;28;20199;-87
2021/01/30 01:09:15;;;;;;;19.13;5.17;;;9.80;99.90;;;;;;5096691;28;20170;-89
2021/01/30 01:11:42;;;;;;;20.70;5.90;;;9.70;99.90;;;;;;5097085;28;20171;-87
2021/01/30 01:14:08;;;;;;;21.67;6.33;;;9.70;99.90;;;;;;5096966;28;20174;-90
2021/01/30 01:16:34;;;;;;;15.97;5.53;;;9.60;99.90;;;;;;5098229;28;20244;-89
2021/01/30 01:19:01;;;;;;;19.13;5.57;;;9.70;99.90;;;;;;5098162;28;20198;-88
2021/01/30 01:21:26;;;;;;;17.60;5.77;;;9.70;99.90;;;;;;5107084;28;20190;-87
2021/01/30 01:23:52;;;;;;;22.57;5.70;;;9.80;99.90;;;;;;5119975;28;20171;-88
2021/01/30 01:26:19;;;;;;;18.60;5.13;;;9.70;99.90;;;;;;5112189;28;20189;-86
2021/01/30 01:28:49;;;;;;;23.63;5.63;;;9.70;99.90;;;;;;5101501;28;20198;-88
2021/01/30 01:34:36;;;;;;;22.17;6.07;;;9.70;99.90;;;;;;5115765;28;20181;-88
2021/01/30 01:37:05;;;;;;;23.43;6.03;;;9.70;99.90;;;;;;5097661;28;20548;-89
2021/01/30 01:39:33;;;;;;;22.80;5.97;;;9.80;99.90;;;;;;5097326;28;20210;-88
2021/01/30 01:42:20;;;;;;;21.43;5.60;;;9.80;99.90;;;;;;5097219;28;20167;-88
2021/01/30 01:44:47;;;;;;;20.73;6.17;;;9.80;99.90;;;;;;5099911;28;20175;-89
2021/01/30 01:47:25;;;;;;;21.03;5.93;;;9.80;99.90;;;;;;5097337;28;20178;-88
2021/01/30 01:49:54;;;;;;;24.17;6.00;;;9.70;99.90;;;;;;5097092;28;20174;-89
2021/01/30 01:52:27;;;;;;;26.30;6.27;;;9.60;99.90;;;;;;5097347;28;20167;-87
2021/01/30 01:54:57;;;;;;;17.50;5.87;;;9.60;99.90;;;;;;5097138;28;20183;-86
2021/01/30 01:57:24;;;;;;;20.80;5.43;;;9.60;99.90;;;;;;5096907;28;20175;-87
2021/01/30 01:59:54;;;;;;;22.00;6.27;;;9.90;99.90;;;;;;5097158;28;20199;-88
2021/01/30 02:02:22;;;;;;;26.90;5.87;;;9.70;99.90;;;;;;5097072;28;20159;-88
2021/01/30 02:04:58;;;;;;;21.80;6.70;;;9.60;99.90;;;;;;5096574;28;20174;-89
2021/01/30 02:07:23;;;;;;;21.63;6.03;;;9.70;99.90;;;;;;5096764;28;20183;-86
2021/01/30 02:09:49;;;;;;;24.70;5.57;;;9.60;99.90;;;;;;5097124;28;20194;-87
2021/01/30 02:12:15;;;;;;;23.47;6.33;;;9.70;99.90;;;;;;5096875;28;20167;-87
2021/01/30 02:14:45;;;;;;;25.90;7.30;;;9.70;99.90;;;;;;5096788;28;20175;-89
2021/01/30 02:17:26;;;;;;;22.83;6.77;;;9.60;99.90;;;;;;5096551;28;20177;-88
2021/01/30 02:19:51;;;;;;;21.97;7.10;;;9.60;99.90;;;;;;5096762;28;20705;-87
2021/01/30 02:22:52;;;;;;;17.87;5.70;;;9.60;99.90;;;;;;5096918;28;20171;-88
2021/01/30 02:26:09;;;;;;;26.83;7.03;;;9.50;99.90;;;;;;5096665;28;20183;-89
2021/01/30 02:28:45;;;;;;;30.97;6.77;;;9.50;99.90;;;;;;5032347;28;20680;-89
2021/01/30 02:31:19;;;;;;;18.50;6.47;;;9.50;99.90;;;;;;5015723;28;20254;-88
2021/01/30 02:34:13;;;;;;;23.77;6.50;;;9.50;99.90;;;;;;5070745;28;20249;-89
2021/01/30 02:36:46;;;;;;;22.03;7.10;;;9.50;99.90;;;;;;5096476;28;20939;-89
2021/01/30 02:39:14;;;;;;;25.77;6.87;;;9.50;99.90;;;;;;5096484;28;20267;-88
2021/01/30 02:41:51;;;;;;;23.30;6.83;;;9.60;99.90;;;;;;5096625;28;20177;-89
2021/01/30 02:44:18;;;;;;;26.47;6.93;;;9.60;99.90;;;;;;5096747;28;20265;-90
2021/01/30 02:46:50;;;;;;;29.10;7.00;;;9.60;99.90;;;;;;5096183;28;20254;-88
2021/01/30 02:49:25;;;;;;;23.20;7.17;;;9.90;99.90;;;;;;5096375;28;20167;-89
2021/01/30 02:52:21;;;;;;;24.10;7.50;;;9.90;99.90;;;;;;5096489;28;20253;-88
2021/01/30 02:54:47;;;;;;;28.27;6.70;;;9.70;99.90;;;;;;5092928;28;20187;-91
2021/01/30 02:57:17;;;;;;;20.47;6.53;;;9.60;99.90;;;;;;5096314;28;20179;-89
2021/01/30 02:59:47;;;;;;;22.93;6.43;;;9.60;99.90;;;;;;5096338;28;20221;-86
2021/01/30 03:02:13;;;;;;;29.47;6.83;;;9.60;99.90;;;;;;5096086;28;20206;-90
2021/01/30 03:04:40;;;;;;;25.47;6.10;;;9.70;99.90;;;;;;5096185;28;20199;-88
2021/01/30 03:07:19;;;;;;;25.87;6.93;;;9.70;99.90;;;;;;5096439;28;20220;-87
2021/01/30 03:10:03;;;;;;;24.50;6.53;;;9.80;99.90;;;;;;5096289;28;20225;-89
2021/01/30 03:12:41;;;;;;;24.30;6.60;;;9.80;99.90;;;;;;5096049;28;20170;-87
2021/01/30 03:15:35;;;;;;;28.23;7.10;;;9.80;99.90;;;;;;5095662;28;20175;-88
2021/01/30 03:18:04;;;;;;;24.90;6.27;;;9.80;99.90;;;;;;5059702;28;20182;-88
2021/01/30 03:20:31;;;;;;;30.03;7.07;;;9.80;99.90;;;;;;5096155;28;20313;-87
2021/01/30 03:23:00;;;;;;;23.77;7.33;;;9.80;99.90;;;;;;5096090;28;20250;-89
2021/01/30 03:25:28;;;;;;;26.20;7.60;;;9.90;99.90;;;;;;5095829;28;20182;-87
2021/01/30 03:27:59;;;;;;;21.77;6.63;;;9.90;99.90;;;;;;5113956;28;20167;-90
2021/01/30 03:30:25;;;;;;;33.93;7.13;;;9.90;99.90;;;;;;5095837;28;20174;-87
2021/01/30 03:32:52;;;;;;;24.33;6.90;;;9.90;99.90;;;;;;5095911;28;20178;-89
2021/01/30 03:35:18;;;;;;;28.27;6.47;;;9.90;99.90;;;;;;5095695;28;20174;-88
2021/01/30 03:37:44;;;;;;;25.30;6.83;;;9.90;99.90;;;;;;5095885;28;20627;-87
2021/01/30 03:40:11;;;;;;;20.90;6.43;;;10.00;99.90;;;;;;5095868;28;20217;-88
2021/01/30 03:42:38;;;;;;;20.97;5.80;;;10.10;99.90;;;;;;5095827;28;20177;-88
2021/01/30 03:45:08;;;;;;;10.80;8.17;;;9.80;99.90;;;;;;5095761;28;20171;-87
2021/01/30 03:47:34;;;;;;;10.37;7.50;;;9.10;99.90;;;;;;5113860;28;20569;-88
2021/01/30 03:49:59;;;;;;;9.93;8.30;;;8.50;99.90;;;;;;5096021;28;20209;-86
2021/01/30 03:52:25;;;;;;;10.50;9.10;;;8.30;99.90;;;;;;5095898;28;20254;-88
2021/01/30 03:54:51;;;;;;;10.77;8.23;;;8.00;99.90;;;;;;5096020;28;20183;-88
2021/01/30 03:57:17;;;;;;;12.80;9.53;;;7.70;99.90;;;;;;5095912;28;20182;-87
2021/01/30 03:59:42;;;;;;;13.77;9.23;;;7.60;99.90;;;;;;5095309;28;20232;-89
2021/01/30 04:02:08;;;;;;;11.33;9.53;;;7.50;99.90;;;;;;5095528;28;20171;-87
2021/01/30 04:04:34;;;;;;;11.67;8.87;;;7.50;99.90;;;;;;5095561;28;20619;-89
2021/01/30 04:07:00;;;;;;;12.40;10.20;;;7.50;99.90;;;;;;5095659;28;20267;-89
2021/01/30 04:09:27;;;;;;;10.37;8.90;;;7.40;99.90;;;;;;5095623;28;20273;-88
2021/01/30 04:11:53;;;;;;;13.10;9.83;;;7.30;99.90;;;;;;5095708;28;20179;-87
2021/01/30 04:14:20;;;;;;;12.40;8.87;;;7.10;99.90;;;;;;5095158;28;20628;-86
2021/01/30 04:16:47;;;;;;;12.53;10.63;;;7.00;99.90;;;;;;5095325;28;20175;-86
2021/01/30 04:19:13;;;;;;;11.80;10.33;;;6.90;99.90;;;;;;5095125;28;20254;-87
2021/01/30 04:21:39;;;;;;;11.17;9.30;;;6.90;99.90;;;;;;5095463;28;20167;-87
2021/01/30 04:24:05;;;;;;;11.77;10.57;;;6.80;99.90;;;;;;5095318;28;20220;-87
2021/01/30 04:26:31;;;;;;;14.57;12.73;;;6.80;99.90;;;;;;5095593;28;20627;-87
2021/01/30 04:28:57;;;;;;;14.30;11.70;;;6.60;99.90;;;;;;5098870;28;20179;-86
2021/01/30 04:31:23;;;;;;;13.93;11.57;;;6.30;99.90;;;;;;5099024;28;20170;-87
2021/01/30 04:33:50;;;;;;;13.87;11.97;;;6.10;99.90;;;;;;5098582;28;20203;-87
2021/01/30 04:36:18;;;;;;;15.37;13.07;;;6.00;99.90;;;;;;5098380;28;20589;-86
2021/01/30 04:38:44;;;;;;;17.03;10.00;;;5.90;99.90;;;;;;5098465;28;20175;-86
2021/01/30 04:41:31;;;;;;;15.70;12.37;;;5.60;99.90;;;;;;5116806;28;20179;-86
2021/01/30 04:44:05;;;;;;;16.30;10.90;;;5.50;99.90;;;;;;5098542;28;20171;-87
2021/01/30 04:46:41;;;;;;;16.80;12.50;;;5.30;99.90;;;;;;5098673;28;20182;-86
2021/01/30 04:49:19;;;;;;;19.40;14.33;;;5.30;99.90;;;;;;5098988;28;20174;-87
2021/01/30 04:52:04;;;;;;;20.50;13.47;;;5.20;99.90;;;;;;5099100;28;20551;-88
2021/01/30 04:55:02;;;;;;;18.70;13.87;;;5.10;99.90;;;;;;5123398;28;20170;-85
2021/01/30 04:57:40;;;;;;;18.60;13.90;;;5.20;99.90;;;;;;5117748;28;20184;-87
2021/01/30 05:00:35;;;;;;;20.73;14.17;;;5.20;99.90;;;;;;5102966;28;20214;-86
2021/01/30 05:03:37;;;;;;;20.87;13.60;;;5.10;99.90;;;;;;5068380;28;20185;-86
2021/01/30 05:06:36;;;;;;;19.20;13.77;;;5.20;99.90;;;;;;5098309;28;20227;-87
2021/01/30 05:09:09;;;;;;;19.33;14.57;;;5.30;99.90;;;;;;5098153;28;20175;-87
2021/01/30 05:11:38;;;;;;;17.63;13.57;;;5.30;99.90;;;;;;5097877;28;20208;-88
2021/01/30 05:14:13;;;;;;;18.47;14.13;;;5.30;99.90;;;;;;5098206;28;20179;-88
2021/01/30 05:16:51;;;;;;;19.57;12.43;;;5.40;99.90;;;;;;5098249;28;20174;-88
2021/01/30 05:19:17;;;;;;;15.60;11.10;;;5.40;99.90;;;;;;5097853;28;20198;-87
2021/01/30 05:21:51;;;;;;;15.83;12.03;;;5.20;99.90;;;;;;5098004;28;20226;-86
2021/01/30 05:24:19;;;;;;;12.17;8.87;;;5.10;99.90;;;;;;5097852;28;20194;-88
2021/01/30 05:27:22;;;;;;;14.00;9.83;;;4.90;99.90;;;;;;5097454;28;20175;-87
2021/01/30 05:30:07;;;;;;;15.73;10.40;;;4.80;99.90;;;;;;5097741;28;20174;-88
2021/01/30 05:32:54;;;;;;;12.90;10.07;;;4.90;99.90;;;;;;5097927;28;20178;-87
2021/01/30 05:35:29;;;;;;;15.00;10.60;;;4.80;99.90;;;;;;5097483;28;20190;-87
2021/01/30 05:38:11;;;;;;;14.47;10.23;;;4.70;99.90;;;;;;5097574;28;20223;-87
2021/01/30 05:40:57;;;;;;;16.90;11.50;;;4.70;99.90;;;;;;5097824;28;20202;-88
2021/01/30 05:43:48;;;;;;;16.07;10.67;;;4.70;99.90;;;;;;5097599;28;20163;-88
2021/01/30 05:46:25;;;;;;;13.43;10.60;;;4.70;99.90;;;;;;5097584;28;20232;-87
2021/01/30 05:48:53;;;;;;;12.80;9.70;;;4.70;99.90;;;;;;5097613;28;20178;-88
2021/01/30 05:51:27;;;;;;;15.93;11.23;;;4.60;99.90;;;;;;5097302;28;20174;-87
2021/01/30 05:53:52;;;;;;;12.40;9.83;;;4.60;99.90;;;;;;5097662;28;20201;-87
2021/01/30 05:56:18;;;;;;;12.43;9.80;;;4.60;99.90;;;;;;5097083;28;20186;-88
2021/01/30 05:58:46;;;;;;;12.53;8.90;;;4.50;99.90;;;;;;5097504;28;20179;-87
2021/01/30 06:01:27;;;;;;;10.33;7.47;;;4.50;99.90;;;;;;5097323;28;20179;-86
2021/01/30 06:03:57;;;;;;;12.23;9.27;;;4.30;99.90;;;;;;5097094;28;20166;-89
2021/01/30 06:06:25;;;;;;;11.77;9.63;;;4.30;99.90;;;;;;5096913;28;20170;-88
2021/01/30 06:09:08;;;;;;;15.13;10.00;;;4.30;99.90;;;;;;5096876;28;20533;-87
2021/01/30 06:11:46;;;;;;;12.60;8.70;;;4.30;99.90;;;;;;5096740;28;20186;-88
2021/01/30 06:14:25;;;;;;;12.63;9.40;;;4.20;99.90;;;;;;5096614;28;20175;-88
2021/01/30 06:16:58;;;;;;;11.47;8.50;;;4.30;99.90;;;;;;5096891;28;20175;-87
2021/01/30 06:19:28;;;;;;;14.57;9.90;;;4.20;99.90;;;;;;5096597;28;20183;-88
2021/01/30 06:22:12;;;;;;;11.93;9.30;;;4.10;99.90;;;;;;5096705;28;20171;-87
2021/01/30 06:24:44;;;;;;;14.10;9.47;;;4.20;99.90;;;;;;5096643;28;20166;-88
2021/01/30 06:27:33;;;;;;;16.87;11.43;;;4.10;99.90;;;;;;5096692;28;20593;-87
2021/01/30 06:30:05;;;;;;;15.57;11.67;;;4.10;99.90;;;;;;5082396;28;20205;-88
2021/01/30 06:32:42;;;;;;;15.37;10.77;;;4.10;99.90;;;;;;5096458;28;20178;-87
2021/01/30 06:35:14;;;;;;;16.90;11.47;;;4.20;99.90;;;;;;5096542;28;20709;-88
2021/01/30 06:37:44;;;;;;;13.47;10.23;;;4.20;99.90;;;;;;5096381;28;20171;-89
2021/01/30 06:40:42;;;;;;;14.83;10.60;;;4.10;99.90;;;;;;5096241;28;20209;-87
2021/01/30 06:43:21;;;;;;;14.47;10.57;;;4.10;99.90;;;;;;5092387;28;20179;-88
2021/01/30 06:45:47;;;;;;;16.10;11.53;;;4.10;99.90;;;;;;5096346;28;20186;-87
2021/01/30 06:48:28;;;;;;;13.03;10.67;;;4.30;99.90;;;;;;5096772;28;20170;-87
2021/01/30 06:50:53;;;;;;;16.37;11.57;;;4.10;99.90;;;;;;5095953;28;20171;-87
2021/01/30 06:53:32;;;;;;;13.97;11.27;;;4.10;99.90;;;;;;5096542;28;20175;-87
2021/01/30 06:56:14;;;;;;;12.40;9.53;;;4.20;99.90;;;;;;5096171;28;20182;-87
2021/01/30 06:58:42;;;;;;;12.90;10.23;;;4.10;99.90;;;;;;5096507;28;20175;-86
2021/01/30 07:01:16;;;;;;;13.33;9.50;;;4.00;99.90;;;;;;5096567;28;20189;-86
2021/01/30 07:04:18;;;;;;;13.17;10.80;;;4.10;99.90;;;;;;5096083;28;20179;-87
2021/01/30 07:07:17;;;;;;;16.27;10.60;;;4.10;99.90;;;;;;5096196;28;20162;-88
2021/01/30 07:09:59;;;;;;;15.20;10.60;;;4.10;99.90;;;;;;5095847;28;20182;-88
2021/01/30 07:12:32;;;;;;;12.90;9.83;;;4.10;99.90;;;;;;5095760;28;20174;-87
2021/01/30 07:15:00;;;;;;;13.63;10.17;;;4.10;99.90;;;;;;5096246;28;20557;-88
2021/01/30 07:17:58;;;;;;;15.23;10.30;;;4.00;99.90;;;;;;5096112;28;20193;-87
2021/01/30 07:20:54;;;;;;;13.77;10.30;;;4.00;99.90;;;;;;5095961;28;20211;-88
2021/01/30 07:23:35;;;;;;;12.10;9.67;;;4.00;99.90;;;;;;5095322;28;20495;-87
2021/01/30 07:26:22;;;;;;;11.07;8.40;;;3.90;99.90;;;;;;5095547;28;20181;-88
2021/01/30 07:29:11;;;;;;;12.07;8.90;;;3.90;99.90;;;;;;5095260;28;20200;-86
2021/01/30 07:31:54;;;;;;;10.43;7.30;;;3.90;99.90;;;;;;5095861;28;20170;-86
2021/01/30 07:34:27;;;;;;;11.27;8.10;;;3.90;99.90;;;;;;5095509;28;20166;-87
2021/01/30 07:37:02;;;;;;;9.80;7.60;;;3.90;99.90;;;;;;5095549;28;20171;-87
2021/01/30 07:39:38;;;;;;;11.20;7.27;;;3.80;99.90;;;;;;5095083;28;20198;-87
2021/01/30 07:42:23;;;;;;;10.40;7.37;;;3.90;99.90;;;;;;5096481;28;20238;-85
2021/01/30 07:45:09;;;;;;;11.23;8.10;;;3.80;99.90;;;;;;5097043;28;20266;-86
2021/01/30 07:47:58;;;;;;;9.80;6.70;;;3.80;99.90;;;;;;5097517;28;20171;-89
2021/01/30 07:50:33;;;;;;;9.20;7.30;;;3.70;99.90;;;;;;5113974;28;20175;-87
2021/01/30 07:53:14;;;;;;;9.20;7.03;;;3.70;99.90;;;;;;5095533;28;20174;-87
2021/01/30 07:56:14;;;;;;;8.80;6.37;;;3.70;99.90;;;;;;5095913;28;20186;-86
2021/01/30 07:59:04;;;;;;;8.53;6.43;;;3.60;99.90;;;;;;5095859;28;20227;-89
2021/01/30 08:01:58;;;;;;;7.87;5.73;;;3.60;99.90;;;;;;5096877;28;20266;-88
2021/01/30 08:04:39;;;;;;;8.80;6.27;;;3.60;99.90;;;;;;5099239;28;20202;-87
2021/01/30 08:07:36;;;;;;;10.03;7.20;;;3.90;99.90;;;;;;5099258;28;20179;-87
2021/01/30 08:10:26;;;;;;;11.43;7.67;;;3.70;99.90;;;;;;5098816;28;20199;-87
2021/01/30 08:13:13;;;;;;;8.93;6.97;;;3.70;99.90;;;;;;5099200;28;20175;-88
2021/01/30 08:15:46;;;;;;;8.70;7.30;;;3.70;99.90;;;;;;5098444;28;20705;-88
2021/01/30 08:18:34;;;;;;;8.27;6.43;;;3.70;99.90;;;;;;5117297;28;20189;-87
2021/01/30 08:21:10;;;;;;;7.53;5.67;;;3.70;99.90;;;;;;5098857;28;20256;-87
2021/01/30 08:24:02;;;;;;;6.83;5.27;;;3.70;99.90;;;;;;5116951;28;20162;-85
2021/01/30 08:26:44;;;;;;;6.40;5.20;;;3.70;99.90;;;;;;5100002;28;20269;-86
2021/01/30 08:29:27;;;;;;;6.63;4.60;;;3.70;99.90;;;;;;5115207;28;20174;-88
2021/01/30 08:31:57;;;;;;;6.13;4.30;;;3.60;99.90;;;;;;5123927;28;20247;-88
2021/01/30 08:34:26;;;;;;;6.20;4.93;;;3.60;99.90;;;;;;5104889;28;20170;-85
2021/01/30 08:37:00;;;;;;;6.33;4.80;;;3.70;99.90;;;;;;5100843;28;20239;-86
2021/01/30 08:39:36;;;;;;;5.80;4.07;;;3.60;99.90;;;;;;5098338;28;20289;-89
2021/01/30 08:42:06;;;;;;;6.57;4.87;;;3.60;99.90;;;;;;5098530;28;20457;-87
2021/01/30 08:44:45;;;;;;;6.97;5.23;;;3.60;99.90;;;;;;5097165;28;20167;-87
2021/01/30 08:47:21;;;;;;;7.80;5.00;;;3.60;99.90;;;;;;5098566;28;20174;-88
2021/01/30 08:50:11;;;;;;;7.23;4.67;;;3.60;99.90;;;;;;5098250;28;20182;-91
2021/01/30 08:52:50;;;;;;;7.47;5.33;;;3.70;99.90;;;;;;5098328;28;20627;-87
2021/01/30 08:55:32;;;;;;;6.93;5.23;;;3.60;99.90;;;;;;5098222;28;20178;-90
2021/01/30 08:57:59;;;;;;;6.80;5.00;;;3.70;99.90;;;;;;5098867;28;20532;-89
2021/01/30 09:00:27;;;;;;;6.40;5.00;;;3.60;99.90;;;;;;5098366;28;20270;-88
2021/01/30 09:03:05;;;;;;;7.77;5.23;;;3.70;99.90;;;;;;5098928;28;20290;-89
2021/01/30 09:05:41;;;;;;;7.87;5.13;;;3.70;99.90;;;;;;5100885;28;20167;-87
2021/01/30 09:08:15;;;;;;;7.93;5.13;;;3.60;99.90;;;;;;5098417;28;20181;-87
2021/01/30 09:10:41;;;;;;;8.53;6.57;;;3.60;99.90;;;;;;5098376;28;20543;-89
2021/01/30 09:13:11;;;;;;;7.23;4.97;;;3.60;99.90;;;;;;5097590;28;20190;-89
2021/01/30 09:15:40;;;;;;;9.33;6.57;;;3.70;99.90;;;;;;5098495;28;20224;-90
2021/01/30 09:18:34;;;;;;;8.00;5.73;;;3.70;99.90;;;;;;5097774;28;20228;-87
2021/01/30 09:21:37;;;;;;;8.20;5.30;;;3.70;99.90;;;;;;5112038;28;20210;-89
2021/01/30 09:24:57;;;;;;;9.97;6.10;;;3.80;99.90;;;;;;5100283;28;20175;-89
2021/01/30 09:27:31;;;;;;;10.83;7.07;;;3.80;99.90;;;;;;5029470;28;20257;-87
2021/01/30 09:30:23;;;;;;;8.80;6.00;;;3.80;99.90;;;;;;5079257;28;20191;-88
2021/01/30 09:32:49;;;;;;;10.50;7.47;;;3.80;99.90;;;;;;5067853;28;20228;-90
2021/01/30 09:35:32;;;;;;;11.50;7.30;;;3.90;99.90;;;;;;5090663;28;20274;-89
2021/01/30 09:38:26;;;;;;;11.30;7.13;;;3.80;99.90;;;;;;5095229;28;20251;-89
2021/01/30 09:41:18;;;;;;;9.87;6.87;;;3.90;99.90;;;;;;5100999;28;20215;-89
2021/01/30 09:43:44;;;;;;;12.70;8.73;;;3.80;99.90;;;;;;5093005;28;20203;-88
2021/01/30 09:46:14;;;;;;;11.43;7.97;;;3.80;99.90;;;;;;5097162;28;20203;-89
2021/01/30 09:48:42;;;;;;;12.87;8.03;;;3.60;99.90;;;;;;5097511;28;20198;-87
2021/01/30 09:51:10;;;;;;;11.83;8.90;;;3.60;99.90;;;;;;5116079;28;20584;-89
2021/01/30 09:53:56;;;;;;;10.07;7.73;;;3.60;99.90;;;;;;5101535;28;20167;-91
2021/01/30 09:56:23;;;;;;;12.77;8.90;;;3.70;99.90;;;;;;5128194;27;20650;-85
2021/01/30 09:58:55;;;;;;;11.10;8.50;;;3.70;99.90;;;;;;5132511;27;20627;-92
2021/01/30 10:01:39;;;;;;;10.97;8.10;;;3.60;99.90;;;;;;5105743;27;20162;-89
2021/01/30 10:04:34;;;;;;;12.27;9.13;;;3.70;99.90;;;;;;5105565;28;20179;-88
2021/01/30 10:07:10;;;;;;;13.13;9.00;;;3.60;99.90;;;;;;5096167;28;20164;-88
2021/01/30 10:09:41;;;;;;;11.47;8.47;;;3.70;99.90;;;;;;5100045;28;20182;-90
2021/01/30 10:12:08;;;;;;;11.00;6.23;;;3.60;99.90;;;;;;5096071;28;20178;-90
2021/01/30 10:14:37;;;;;;;14.60;10.07;;;3.40;99.90;;;;;;5096223;28;20523;-90
2021/01/30 10:17:19;;;;;;;14.13;9.73;;;3.60;99.90;;;;;;5091450;28;20174;-88
2021/01/30 10:19:45;;;;;;;15.27;9.97;;;3.50;99.90;;;;;;5094060;27;20248;-90
2021/01/30 10:22:20;;;;;;;13.37;10.00;;;3.40;99.90;;;;;;5087848;28;20194;-90
2021/01/30 10:24:50;;;;;;;16.07;11.33;;;3.30;99.90;;;;;;5086792;28;20261;-88
2021/01/30 10:27:24;;;;;;;14.20;9.57;;;3.40;99.90;;;;;;5090747;28;20168;-89
2021/01/30 10:29:57;;;;;;;16.90;12.47;;;3.40;99.90;;;;;;5098289;28;20181;-92
2021/01/30 10:32:36;;;;;;;18.43;12.80;;;3.50;99.90;;;;;;5091925;28;20171;-89
2021/01/30 10:35:15;;;;;;;17.17;11.93;;;3.40;99.90;;;;;;5105490;28;20190;-87
2021/01/30 10:37:56;;;;;;;18.87;13.33;;;3.30;99.90;;;;;;5094972;28;20179;-87
2021/01/30 10:40:39;;;;;;;19.13;13.80;;;3.40;99.90;;;;;;5092377;28;20207;-87
2021/01/30 10:43:26;;;;;;;18.97;13.40;;;3.40;99.90;;;;;;5093085;28;20190;-87
2021/01/30 10:46:01;;;;;;;19.63;13.63;;;3.40;99.90;;;;;;5097491;28;20212;-88
2021/01/30 10:48:33;;;;;;;21.03;13.60;;;3.40;99.90;;;;;;5095657;28;20579;-89
2021/01/30 10:51:31;;;;;;;21.03;14.97;;;3.30;99.90;;;;;;5095464;28;20597;-88
2021/01/30 10:54:30;;;;;;;21.57;15.13;;;3.50;99.90;;;;;;5079030;28;20197;-88
2021/01/30 10:57:17;;;;;;;23.33;16.03;;;3.60;99.90;;;;;;5052385;28;20194;-89
2021/01/30 10:59:49;;;;;;;22.10;15.37;;;3.40;99.90;;;;;;5095370;28;20214;-87
2021/01/30 11:02:44;;;;;;;22.17;15.57;;;3.40;99.90;;;;;;5095089;28;20324;-88
2021/01/30 11:05:27;;;;;;;24.67;17.60;;;3.30;99.90;;;;;;5102662;28;20546;-88
2021/01/30 11:08:00;;;;;;;26.00;17.30;;;3.30;99.90;;;;;;5095228;28;20228;-88
2021/01/30 11:10:42;;;;;;;26.77;19.63;;;3.30;99.90;;;;;;5095862;28;20194;-89
2021/01/30 11:13:12;;;;;;;27.63;19.50;;;3.40;99.90;;;;;;5095276;28;20615;-88
2021/01/30 11:15:43;;;;;;;25.67;18.80;;;3.50;99.90;;;;;;5096832;28;20658;-86
2021/01/30 11:18:26;;;;;;;28.43;20.13;;;3.40;99.90;;;;;;5094810;28;20174;-90
2021/01/30 11:20:52;;;;;;;26.10;17.57;;;3.40;99.90;;;;;;5113229;28;20222;-89
2021/01/30 11:23:45;;;;;;;28.13;20.07;;;3.40;99.90;;;;;;5094865;28;20174;-88
2021/01/30 11:26:33;;;;;;;26.47;17.67;;;3.30;99.90;;;;;;5094874;28;20212;-87
2021/01/30 11:28:59;;;;;;;27.87;19.87;;;3.40;99.90;;;;;;5084257;28;20179;-89
2021/01/30 11:31:25;;;;;;;26.73;19.43;;;3.30;99.90;;;;;;5095045;28;20587;-91
2021/01/30 11:33:54;;;;;;;26.80;18.97;;;3.40;99.90;;;;;;5104587;28;20170;-89
2021/01/30 11:36:20;;;;;;;27.47;19.23;;;3.30;99.90;;;;;;5098094;28;20690;-87
2021/01/30 11:38:58;;;;;;;26.67;19.03;;;3.30;99.90;;;;;;5098800;28;20167;-87
2021/01/30 11:41:25;;;;;;;26.67;19.13;;;3.30;99.90;;;;;;5117787;28;20197;-88
2021/01/30 11:43:51;;;;;;;27.93;19.80;;;3.30;99.90;;;;;;5099029;28;20171;-87
2021/01/30 11:46:19;;;;;;;26.47;18.07;;;3.20;99.90;;;;;;5104774;28;20167;-87
2021/01/30 11:48:46;;;;;;;27.33;19.37;;;3.20;99.90;;;;;;5120919;28;20168;-87
2021/01/30 11:51:28;;;;;;;26.93;19.50;;;3.20;99.90;;;;;;5123579;28;20178;-85
2021/01/30 11:53:55;;;;;;;28.93;20.30;;;3.10;99.90;;;;;;5125869;27;20230;-87
2021/01/30 11:56:30;;;;;;;27.60;19.37;;;3.20;99.90;;;;;;5107321;28;20256;-85
2021/01/30 11:58:59;;;;;;;28.33;19.20;;;3.30;99.90;;;;;;5100112;28;20331;-85
2021/01/30 12:01:25;;;;;;;24.70;18.10;;;3.30;99.90;;;;;;5100693;28;20231;-91
2021/01/30 12:03:51;;;;;;;27.37;19.83;;;3.30;99.90;;;;;;5098640;28;20638;-86
2021/01/30 12:06:19;;;;;;;27.43;18.17;;;3.40;99.90;;;;;;5096382;28;20228;-84
2021/01/30 12:08:45;;;;;;;25.67;17.20;;;3.30;99.90;;;;;;5099219;28;20167;-85
2021/01/30 12:11:13;;;;;;;27.03;18.53;;;3.20;99.90;;;;;;5133798;27;20205;-83
2021/01/30 12:13:39;;;;;;;26.67;19.37;;;3.20;99.90;;;;;;5119973;27;20519;-92
2021/01/30 12:16:05;;;;;;;29.40;20.40;;;3.20;99.90;;;;;;5119321;27;20213;-88
2021/01/30 12:18:33;;;;;;;28.50;20.33;;;3.30;99.90;;;;;;5127524;27;20174;-85
2021/01/30 12:21:00;;;;;;;28.70;21.63;;;3.50;99.90;;;;;;5098939;28;20229;-86
2021/01/30 12:23:25;;;;;;;28.73;20.90;;;3.60;99.90;;;;;;5098815;28;20242;-88
2021/01/30 12:25:51;;;;;;;26.17;17.47;;;3.40;99.90;;;;;;5100317;27;20265;-86
2021/01/30 12:28:24;;;;;;;28.10;20.13;;;3.30;99.90;;;;;;5118651;27;20638;-89
2021/01/30 12:30:50;;;;;;;28.63;20.47;;;3.20;99.90;;;;;;5118510;27;20167;-90
2021/01/30 12:33:15;;;;;;;33.57;23.10;;;3.30;99.90;;;;;;5118828;27;20189;-88
2021/01/30 12:35:41;;;;;;;32.37;22.33;;;3.50;99.90;;;;;;5102920;28;20185;-88
2021/01/30 12:38:08;;;;;;;29.20;21.30;;;3.30;99.90;;;;;;5097979;28;20201;-87
2021/01/30 12:40:41;;;;;;;27.93;18.40;;;3.30;99.90;;;;;;5097976;28;20678;-87
2021/01/30 12:43:07;;;;;;;29.50;20.43;;;3.30;99.90;;;;;;5116212;28;20226;-90
2021/01/30 12:45:33;;;;;;;29.40;20.37;;;3.30;99.90;;;;;;5098083;28;20170;-89
2021/01/30 12:48:01;;;;;;;32.07;22.20;;;3.40;99.90;;;;;;5097584;28;20179;-90
2021/01/30 12:50:28;;;;;;;30.03;20.73;;;3.40;99.90;;;;;;5098172;28;20179;-90
2021/01/30 12:52:54;;;;;;;29.97;21.07;;;3.40;99.90;;;;;;5098419;28;20163;-87
2021/01/30 12:55:20;;;;;;;31.53;22.40;;;3.40;99.90;;;;;;5097779;28;20171;-91
2021/01/30 12:57:46;;;;;;;31.33;22.20;;;3.70;99.90;;;;;;5097614;28;20236;-87
2021/01/30 13:00:25;;;;;;;30.57;22.20;;;3.50;99.90;;;;;;5097689;28;20207;-87
2021/01/30 13:02:51;;;;;;;30.70;20.80;;;3.50;99.90;;;;;;5098009;28;20184;-87
2021/01/30 13:05:19;;;;;;;33.83;24.17;;;3.60;99.90;;;;;;5130918;27;20186;-91
2021/01/30 13:07:46;;;;;;;29.90;20.83;;;3.60;99.90;;;;;;5114714;28;20179;-87
2021/01/30 13:10:17;;;;;;;31.17;21.27;;;3.50;99.90;;;;;;5114481;28;20199;-86
2021/01/30 13:12:43;;;;;;;29.13;20.37;;;3.50;99.90;;;;;;5114317;28;20708;-87
2021/01/30 13:15:10;;;;;;;27.00;19.80;;;3.50;99.90;;;;;;5113919;28;20231;-88
2021/01/30 13:17:36;;;;;;;28.47;21.37;;;3.40;99.90;;;;;;5113018;28;20500;-88
2021/01/30 13:20:05;;;;;;;28.50;21.20;;;3.30;99.90;;;;;;5097617;28;20271;-86
2021/01/30 13:22:33;;;;;;;28.57;21.53;;;3.40;99.90;;;;;;5098536;28;20175;-88